Ivano-Frankivs'K, Ukraine
Current Conditions -  °F | °C
As of 11:30 PM on Friday 19 Dec 2014 (Local Time) from UKLI Reporting Station
Broken Clouds Broken Clouds  
Wind Chill: 36°   Ceiling: 3600
Heat Index: 39°   Visibility: 6mi
Dew Point: 36°   Wind: 4mph
Humidity: 87%   Direction: 120°ESE
Pressure: 29.85"   Gusts: NA
Location:  48.97°N, 24.4°E
Report Text: UKLI 192030Z 12002MPS 9999 BKN036 04/02 Q1011 28090070 NOSIG
Loading
Personal Weather Stations






























Interactive Weather Map New forecast layout! Learn more

10-Day Weather Forecast

Advertisements
Track Severe Weather on mobile